sensor_id;sensor_type;location;lat;lon;timestamp;P1;durP1;ratioP1;P2;durP2;ratioP2
63218;SDS011;49320;52.512;13.448;2024-02-23T00:02:14;2.05;;;1.00;;
63218;SDS011;49320;52.512;13.448;2024-02-23T00:04:41;0.95;;;0.73;;
63218;SDS011;49320;52.512;13.448;2024-02-23T00:07:08;1.23;;;0.70;;
63218;SDS011;49320;52.512;13.448;2024-02-23T00:09:35;0.77;;;0.63;;
63218;SDS011;49320;52.512;13.448;2024-02-23T00:12:02;1.48;;;0.80;;
63218;SDS011;49320;52.512;13.448;2024-02-23T00:14:30;0.85;;;0.60;;
63218;SDS011;49320;52.512;13.448;2024-02-23T00:16:57;1.38;;;0.77;;
63218;SDS011;49320;52.512;13.448;2024-02-23T00:19:25;0.57;;;0.57;;
63218;SDS011;49320;52.512;13.448;2024-02-23T00:21:52;0.70;;;0.70;;
63218;SDS011;49320;52.512;13.448;2024-02-23T00:24:20;0.85;;;0.77;;
63218;SDS011;49320;52.512;13.448;2024-02-23T00:26:48;1.73;;;0.88;;
63218;SDS011;49320;52.512;13.448;2024-02-23T00:29:15;1.02;;;0.73;;
63218;SDS011;49320;52.512;13.448;2024-02-23T00:31:42;1.55;;;0.90;;
63218;SDS011;49320;52.512;13.448;2024-02-23T00:34:11;0.85;;;0.60;;
63218;SDS011;49320;52.512;13.448;2024-02-23T00:36:40;0.73;;;0.70;;
63218;SDS011;49320;52.512;13.448;2024-02-23T00:39:08;0.75;;;0.70;;
63218;SDS011;49320;52.512;13.448;2024-02-23T00:41:35;0.85;;;0.80;;
63218;SDS011;49320;52.512;13.448;2024-02-23T00:44:03;0.73;;;0.63;;
63218;SDS011;49320;52.512;13.448;2024-02-23T00:46:30;0.70;;;0.70;;
63218;SDS011;49320;52.512;13.448;2024-02-23T00:48:57;1.48;;;0.90;;
63218;SDS011;49320;52.512;13.448;2024-02-23T00:51:24;1.38;;;1.20;;
63218;SDS011;49320;52.512;13.448;2024-02-23T00:53:51;1.73;;;1.23;;
63218;SDS011;49320;52.512;13.448;2024-02-23T00:56:18;1.23;;;1.00;;
63218;SDS011;49320;52.512;13.448;2024-02-23T00:58:50;1.70;;;1.20;;
63218;SDS011;49320;52.512;13.448;2024-02-23T01:01:17;1.10;;;0.95;;
63218;SDS011;49320;52.512;13.448;2024-02-23T01:03:44;1.75;;;0.80;;
63218;SDS011;49320;52.512;13.448;2024-02-23T01:06:11;1.00;;;0.77;;
63218;SDS011;49320;52.512;13.448;2024-02-23T01:08:38;1.70;;;1.00;;
63218;SDS011;49320;52.512;13.448;2024-02-23T01:11:06;0.77;;;0.73;;
63218;SDS011;49320;52.512;13.448;2024-02-23T01:13:33;1.33;;;1.15;;
63218;SDS011;49320;52.512;13.448;2024-02-23T01:16:00;0.85;;;0.70;;
63218;SDS011;49320;52.512;13.448;2024-02-23T01:18:26;1.25;;;0.90;;
63218;SDS011;49320;52.512;13.448;2024-02-23T01:20:54;1.95;;;1.05;;
63218;SDS011;49320;52.512;13.448;2024-02-23T01:23:23;0.80;;;0.63;;
63218;SDS011;49320;52.512;13.448;2024-02-23T01:25:50;1.05;;;0.90;;
63218;SDS011;49320;52.512;13.448;2024-02-23T01:28:17;1.33;;;0.90;;
63218;SDS011;49320;52.512;13.448;2024-02-23T01:30:45;0.77;;;0.77;;
63218;SDS011;49320;52.512;13.448;2024-02-23T01:33:12;1.00;;;0.80;;
63218;SDS011;49320;52.512;13.448;2024-02-23T01:35:39;1.88;;;0.57;;
63218;SDS011;49320;52.512;13.448;2024-02-23T01:38:06;1.25;;;0.70;;
63218;SDS011;49320;52.512;13.448;2024-02-23T01:40:33;0.73;;;0.70;;
63218;SDS011;49320;52.512;13.448;2024-02-23T01:43:02;1.20;;;0.70;;
63218;SDS011;49320;52.512;13.448;2024-02-23T01:45:30;0.77;;;0.77;;
63218;SDS011;49320;52.512;13.448;2024-02-23T01:47:58;1.23;;;0.77;;
63218;SDS011;49320;52.512;13.448;2024-02-23T01:50:27;0.70;;;0.70;;
63218;SDS011;49320;52.512;13.448;2024-02-23T01:52:56;1.33;;;0.80;;
63218;SDS011;49320;52.512;13.448;2024-02-23T01:55:26;0.75;;;0.60;;
63218;SDS011;49320;52.512;13.448;2024-02-23T01:57:57;1.90;;;0.80;;
63218;SDS011;49320;52.512;13.448;2024-02-23T02:00:25;1.10;;;0.70;;
63218;SDS011;49320;52.512;13.448;2024-02-23T02:02:52;0.70;;;0.70;;
63218;SDS011;49320;52.512;13.448;2024-02-23T02:05:20;0.70;;;0.70;;
63218;SDS011;49320;52.512;13.448;2024-02-23T02:07:47;0.60;;;0.60;;
63218;SDS011;49320;52.512;13.448;2024-02-23T02:10:20;1.15;;;0.90;;
63218;SDS011;49320;52.512;13.448;2024-02-23T02:12:47;0.82;;;0.70;;
63218;SDS011;49320;52.512;13.448;2024-02-23T02:15:14;0.70;;;0.68;;
63218;SDS011;49320;52.512;13.448;2024-02-23T02:17:41;0.60;;;0.60;;
63218;SDS011;49320;52.512;13.448;2024-02-23T02:20:11;0.70;;;0.65;;
63218;SDS011;49320;52.512;13.448;2024-02-23T02:22:40;1.95;;;0.60;;
63218;SDS011;49320;52.512;13.448;2024-02-23T02:25:07;1.30;;;0.60;;
63218;SDS011;49320;52.512;13.448;2024-02-23T02:27:34;1.83;;;0.80;;
63218;SDS011;49320;52.512;13.448;2024-02-23T02:30:00;1.98;;;0.52;;
63218;SDS011;49320;52.512;13.448;2024-02-23T02:32:28;2.45;;;0.63;;
63218;SDS011;49320;52.512;13.448;2024-02-23T02:35:00;0.93;;;0.70;;
63218;SDS011;49320;52.512;13.448;2024-02-23T02:37:27;0.57;;;0.50;;
63218;SDS011;49320;52.512;13.448;2024-02-23T02:39:54;1.63;;;0.60;;
63218;SDS011;49320;52.512;13.448;2024-02-23T02:42:21;1.80;;;0.60;;
63218;SDS011;49320;52.512;13.448;2024-02-23T02:44:48;0.52;;;0.40;;
63218;SDS011;49320;52.512;13.448;2024-02-23T02:47:15;1.38;;;0.60;;
63218;SDS011;49320;52.512;13.448;2024-02-23T02:49:41;1.20;;;0.68;;
63218;SDS011;49320;52.512;13.448;2024-02-23T02:52:08;2.55;;;0.55;;
63218;SDS011;49320;52.512;13.448;2024-02-23T02:54:35;1.63;;;0.80;;
63218;SDS011;49320;52.512;13.448;2024-02-23T02:57:02;2.15;;;0.38;;
63218;SDS011;49320;52.512;13.448;2024-02-23T02:59:29;0.98;;;0.57;;
63218;SDS011;49320;52.512;13.448;2024-02-23T03:02:00;1.05;;;0.38;;
63218;SDS011;49320;52.512;13.448;2024-02-23T03:04:27;1.30;;;0.50;;
63218;SDS011;49320;52.512;13.448;2024-02-23T03:06:54;1.38;;;0.70;;
63218;SDS011;49320;52.512;13.448;2024-02-23T03:09:20;0.40;;;0.30;;
63218;SDS011;49320;52.512;13.448;2024-02-23T03:11:47;0.85;;;0.50;;
63218;SDS011;49320;52.512;13.448;2024-02-23T03:14:14;1.00;;;0.50;;
63218;SDS011;49320;52.512;13.448;2024-02-23T03:16:44;0.95;;;0.50;;
63218;SDS011;49320;52.512;13.448;2024-02-23T03:19:14;1.10;;;0.32;;
63218;SDS011;49320;52.512;13.448;2024-02-23T03:21:41;0.73;;;0.45;;
63218;SDS011;49320;52.512;13.448;2024-02-23T03:24:08;0.95;;;0.60;;
63218;SDS011;49320;52.512;13.448;2024-02-23T03:26:35;0.47;;;0.40;;
63218;SDS011;49320;52.512;13.448;2024-02-23T03:29:02;0.52;;;0.50;;
63218;SDS011;49320;52.512;13.448;2024-02-23T03:31:29;1.75;;;0.45;;
63218;SDS011;49320;52.512;13.448;2024-02-23T03:33:56;1.85;;;0.40;;
63218;SDS011;49320;52.512;13.448;2024-02-23T03:36:23;0.40;;;0.40;;
63218;SDS011;49320;52.512;13.448;2024-02-23T03:38:50;2.35;;;0.50;;
63218;SDS011;49320;52.512;13.448;2024-02-23T03:41:17;1.02;;;0.50;;
63218;SDS011;49320;52.512;13.448;2024-02-23T03:43:44;0.95;;;0.50;;
63218;SDS011;49320;52.512;13.448;2024-02-23T03:46:11;0.55;;;0.40;;
63218;SDS011;49320;52.512;13.448;2024-02-23T03:48:38;1.08;;;0.50;;
63218;SDS011;49320;52.512;13.448;2024-02-23T03:51:05;0.40;;;0.40;;
63218;SDS011;49320;52.512;13.448;2024-02-23T03:53:32;0.30;;;0.30;;
63218;SDS011;49320;52.512;13.448;2024-02-23T03:55:59;1.25;;;0.60;;
63218;SDS011;49320;52.512;13.448;2024-02-23T03:58:25;1.17;;;0.57;;
63218;SDS011;49320;52.512;13.448;2024-02-23T04:00:52;0.38;;;0.38;;
63218;SDS011;49320;52.512;13.448;2024-02-23T04:03:19;1.63;;;0.75;;
63218;SDS011;49320;52.512;13.448;2024-02-23T04:05:46;0.85;;;0.50;;
63218;SDS011;49320;52.512;13.448;2024-02-23T04:08:13;0.57;;;0.43;;
63218;SDS011;49320;52.512;13.448;2024-02-23T04:10:40;0.85;;;0.43;;
63218;SDS011;49320;52.512;13.448;2024-02-23T04:13:07;0.77;;;0.40;;
63218;SDS011;49320;52.512;13.448;2024-02-23T04:15:34;1.35;;;0.60;;
63218;SDS011;49320;52.512;13.448;2024-02-23T04:18:02;0.60;;;0.35;;
63218;SDS011;49320;52.512;13.448;2024-02-23T04:20:29;0.52;;;0.40;;
63218;SDS011;49320;52.512;13.448;2024-02-23T04:22:56;0.40;;;0.40;;
63218;SDS011;49320;52.512;13.448;2024-02-23T04:25:23;0.30;;;0.30;;
63218;SDS011;49320;52.512;13.448;2024-02-23T04:27:50;1.33;;;0.52;;
63218;SDS011;49320;52.512;13.448;2024-02-23T04:30:17;0.85;;;0.50;;
63218;SDS011;49320;52.512;13.448;2024-02-23T04:32:44;1.00;;;0.43;;
63218;SDS011;49320;52.512;13.448;2024-02-23T04:35:10;0.60;;;0.43;;
63218;SDS011;49320;52.512;13.448;2024-02-23T04:37:37;0.98;;;0.50;;
63218;SDS011;49320;52.512;13.448;2024-02-23T04:40:05;0.40;;;0.40;;
63218;SDS011;49320;52.512;13.448;2024-02-23T04:42:33;0.43;;;0.43;;
63218;SDS011;49320;52.512;13.448;2024-02-23T04:45:01;0.82;;;0.45;;
63218;SDS011;49320;52.512;13.448;2024-02-23T04:47:28;0.47;;;0.40;;
63218;SDS011;49320;52.512;13.448;2024-02-23T04:49:55;0.47;;;0.47;;
63218;SDS011;49320;52.512;13.448;2024-02-23T04:52:22;1.20;;;0.40;;
63218;SDS011;49320;52.512;13.448;2024-02-23T04:54:48;0.55;;;0.40;;
63218;SDS011;49320;52.512;13.448;2024-02-23T04:57:15;1.25;;;0.43;;
63218;SDS011;49320;52.512;13.448;2024-02-23T04:59:42;0.65;;;0.52;;
63218;SDS011;49320;52.512;13.448;2024-02-23T05:02:09;0.65;;;0.50;;
63218;SDS011;49320;52.512;13.448;2024-02-23T05:04:36;1.70;;;0.52;;
63218;SDS011;49320;52.512;13.448;2024-02-23T05:07:03;0.77;;;0.50;;
63218;SDS011;49320;52.512;13.448;2024-02-23T05:09:30;0.85;;;0.43;;
63218;SDS011;49320;52.512;13.448;2024-02-23T05:11:57;0.70;;;0.40;;
63218;SDS011;49320;52.512;13.448;2024-02-23T05:14:24;0.68;;;0.50;;
63218;SDS011;49320;52.512;13.448;2024-02-23T05:16:53;1.92;;;0.50;;
63218;SDS011;49320;52.512;13.448;2024-02-23T05:19:19;0.80;;;0.60;;
63218;SDS011;49320;52.512;13.448;2024-02-23T05:21:46;0.50;;;0.50;;
63218;SDS011;49320;52.512;13.448;2024-02-23T05:24:13;1.23;;;0.50;;
63218;SDS011;49320;52.512;13.448;2024-02-23T05:26:40;0.88;;;0.60;;
63218;SDS011;49320;52.512;13.448;2024-02-23T05:29:07;0.60;;;0.40;;
63218;SDS011;49320;52.512;13.448;2024-02-23T05:31:44;0.90;;;0.50;;
63218;SDS011;49320;52.512;13.448;2024-02-23T05:34:14;0.30;;;0.30;;
63218;SDS011;49320;52.512;13.448;2024-02-23T05:36:42;1.38;;;0.55;;
63218;SDS011;49320;52.512;13.448;2024-02-23T05:39:09;0.73;;;0.50;;
63218;SDS011;49320;52.512;13.448;2024-02-23T05:41:36;0.77;;;0.50;;
63218;SDS011;49320;52.512;13.448;2024-02-23T05:44:04;1.70;;;0.50;;
63218;SDS011;49320;52.512;13.448;2024-02-23T05:46:35;0.70;;;0.40;;
63218;SDS011;49320;52.512;13.448;2024-02-23T05:49:04;0.45;;;0.45;;
63218;SDS011;49320;52.512;13.448;2024-02-23T05:51:31;0.98;;;0.40;;
63218;SDS011;49320;52.512;13.448;2024-02-23T05:53:58;0.55;;;0.40;;
63218;SDS011;49320;52.512;13.448;2024-02-23T05:56:25;0.55;;;0.30;;
63218;SDS011;49320;52.512;13.448;2024-02-23T05:58:52;1.27;;;0.43;;
63218;SDS011;49320;52.512;13.448;2024-02-23T06:01:19;0.88;;;0.60;;
63218;SDS011;49320;52.512;13.448;2024-02-23T06:03:46;0.50;;;0.50;;
63218;SDS011;49320;52.512;13.448;2024-02-23T06:06:13;2.05;;;0.60;;
63218;SDS011;49320;52.512;13.448;2024-02-23T06:08:40;0.60;;;0.40;;
63218;SDS011;49320;52.512;13.448;2024-02-23T06:11:09;0.68;;;0.47;;
63218;SDS011;49320;52.512;13.448;2024-02-23T06:13:36;0.50;;;0.40;;
63218;SDS011;49320;52.512;13.448;2024-02-23T06:16:04;2.38;;;0.70;;
63218;SDS011;49320;52.512;13.448;2024-02-23T06:18:35;0.60;;;0.60;;
63218;SDS011;49320;52.512;13.448;2024-02-23T06:21:10;0.98;;;0.50;;
63218;SDS011;49320;52.512;13.448;2024-02-23T06:23:46;0.65;;;0.50;;
63218;SDS011;49320;52.512;13.448;2024-02-23T06:26:13;0.88;;;0.50;;
63218;SDS011;49320;52.512;13.448;2024-02-23T06:28:40;0.40;;;0.40;;
63218;SDS011;49320;52.512;13.448;2024-02-23T06:31:08;0.50;;;0.40;;
63218;SDS011;49320;52.512;13.448;2024-02-23T06:33:36;0.50;;;0.50;;
63218;SDS011;49320;52.512;13.448;2024-02-23T06:36:03;0.50;;;0.50;;
63218;SDS011;49320;52.512;13.448;2024-02-23T06:38:30;0.93;;;0.47;;
63218;SDS011;49320;52.512;13.448;2024-02-23T06:40:58;0.47;;;0.43;;
63218;SDS011;49320;52.512;13.448;2024-02-23T06:43:25;0.55;;;0.50;;
63218;SDS011;49320;52.512;13.448;2024-02-23T06:45:51;0.50;;;0.50;;
63218;SDS011;49320;52.512;13.448;2024-02-23T06:48:18;0.45;;;0.40;;
63218;SDS011;49320;52.512;13.448;2024-02-23T06:50:45;1.10;;;0.70;;
63218;SDS011;49320;52.512;13.448;2024-02-23T06:53:14;0.88;;;0.50;;
63218;SDS011;49320;52.512;13.448;2024-02-23T06:55:41;1.02;;;0.52;;
63218;SDS011;49320;52.512;13.448;2024-02-23T06:58:08;0.55;;;0.55;;
63218;SDS011;49320;52.512;13.448;2024-02-23T07:00:36;0.50;;;0.50;;
63218;SDS011;49320;52.512;13.448;2024-02-23T07:03:03;0.50;;;0.40;;
63218;SDS011;49320;52.512;13.448;2024-02-23T07:05:30;2.67;;;0.60;;
63218;SDS011;49320;52.512;13.448;2024-02-23T07:07:58;1.45;;;0.60;;
63218;SDS011;49320;52.512;13.448;2024-02-23T07:10:25;1.45;;;0.77;;
63218;SDS011;49320;52.512;13.448;2024-02-23T07:12:52;0.93;;;0.47;;
63218;SDS011;49320;52.512;13.448;2024-02-23T07:15:19;2.45;;;0.57;;
63218;SDS011;49320;52.512;13.448;2024-02-23T07:17:46;0.40;;;0.40;;
63218;SDS011;49320;52.512;13.448;2024-02-23T07:20:13;0.82;;;0.55;;
63218;SDS011;49320;52.512;13.448;2024-02-23T07:22:43;1.85;;;0.60;;
63218;SDS011;49320;52.512;13.448;2024-02-23T07:25:12;1.02;;;0.57;;
63218;SDS011;49320;52.512;13.448;2024-02-23T07:27:48;1.27;;;0.70;;
63218;SDS011;49320;52.512;13.448;2024-02-23T07:30:16;2.42;;;1.00;;
63218;SDS011;49320;52.512;13.448;2024-02-23T07:32:44;1.08;;;0.88;;
63218;SDS011;49320;52.512;13.448;2024-02-23T07:35:18;0.85;;;0.50;;
63218;SDS011;49320;52.512;13.448;2024-02-23T07:37:45;0.68;;;0.60;;
63218;SDS011;49320;52.512;13.448;2024-02-23T07:40:12;1.15;;;0.70;;
63218;SDS011;49320;52.512;13.448;2024-02-23T07:42:42;0.93;;;0.55;;
63218;SDS011;49320;52.512;13.448;2024-02-23T07:45:09;0.52;;;0.52;;
63218;SDS011;49320;52.512;13.448;2024-02-23T07:47:37;1.48;;;0.70;;
63218;SDS011;49320;52.512;13.448;2024-02-23T07:50:04;0.82;;;0.60;;
63218;SDS011;49320;52.512;13.448;2024-02-23T07:52:31;0.47;;;0.47;;
63218;SDS011;49320;52.512;13.448;2024-02-23T07:54:59;1.35;;;0.60;;
63218;SDS011;49320;52.512;13.448;2024-02-23T07:57:29;3.05;;;0.70;;
63218;SDS011;49320;52.512;13.448;2024-02-23T07:59:57;0.73;;;0.70;;
63218;SDS011;49320;52.512;13.448;2024-02-23T08:02:24;0.73;;;0.57;;
63218;SDS011;49320;52.512;13.448;2024-02-23T08:04:51;0.75;;;0.68;;
63218;SDS011;49320;52.512;13.448;2024-02-23T08:07:18;0.47;;;0.47;;
63218;SDS011;49320;52.512;13.448;2024-02-23T08:09:45;1.17;;;0.50;;
63218;SDS011;49320;52.512;13.448;2024-02-23T08:12:12;0.63;;;0.63;;
63218;SDS011;49320;52.512;13.448;2024-02-23T08:14:40;1.05;;;0.95;;
63218;SDS011;49320;52.512;13.448;2024-02-23T08:17:08;1.25;;;0.70;;
63218;SDS011;49320;52.512;13.448;2024-02-23T08:19:36;0.90;;;0.50;;
63218;SDS011;49320;52.512;13.448;2024-02-23T08:22:03;1.17;;;0.77;;
63218;SDS011;49320;52.512;13.448;2024-02-23T08:24:30;1.13;;;0.75;;
63218;SDS011;49320;52.512;13.448;2024-02-23T08:26:57;0.57;;;0.50;;
63218;SDS011;49320;52.512;13.448;2024-02-23T08:29:25;0.50;;;0.50;;
63218;SDS011;49320;52.512;13.448;2024-02-23T08:31:53;0.68;;;0.50;;
63218;SDS011;49320;52.512;13.448;2024-02-23T08:34:20;0.73;;;0.50;;
63218;SDS011;49320;52.512;13.448;2024-02-23T08:36:46;0.68;;;0.65;;
63218;SDS011;49320;52.512;13.448;2024-02-23T08:39:13;1.13;;;0.80;;
63218;SDS011;49320;52.512;13.448;2024-02-23T08:41:40;1.80;;;1.00;;
63218;SDS011;49320;52.512;13.448;2024-02-23T08:44:07;0.70;;;0.68;;
63218;SDS011;49320;52.512;13.448;2024-02-23T08:46:34;0.70;;;0.70;;
63218;SDS011;49320;52.512;13.448;2024-02-23T08:49:01;0.85;;;0.70;;
63218;SDS011;49320;52.512;13.448;2024-02-23T08:51:28;0.50;;;0.50;;
63218;SDS011;49320;52.512;13.448;2024-02-23T08:53:55;1.20;;;0.70;;
63218;SDS011;49320;52.512;13.448;2024-02-23T08:56:26;0.77;;;0.60;;
63218;SDS011;49320;52.512;13.448;2024-02-23T08:58:53;0.68;;;0.68;;
63218;SDS011;49320;52.512;13.448;2024-02-23T09:01:21;1.90;;;0.52;;
63218;SDS011;49320;52.512;13.448;2024-02-23T09:03:47;0.50;;;0.40;;
63218;SDS011;49320;52.512;13.448;2024-02-23T09:06:14;1.60;;;0.63;;
63218;SDS011;49320;52.512;13.448;2024-02-23T09:08:41;1.00;;;0.80;;
63218;SDS011;49320;52.512;13.448;2024-02-23T09:11:08;1.65;;;0.90;;
63218;SDS011;49320;52.512;13.448;2024-02-23T09:13:37;1.75;;;0.70;;
63218;SDS011;49320;52.512;13.448;2024-02-23T09:16:04;1.13;;;0.60;;
63218;SDS011;49320;52.512;13.448;2024-02-23T09:18:33;1.58;;;0.70;;
63218;SDS011;49320;52.512;13.448;2024-02-23T09:21:00;1.20;;;0.65;;
63218;SDS011;49320;52.512;13.448;2024-02-23T09:23:27;1.75;;;0.60;;
63218;SDS011;49320;52.512;13.448;2024-02-23T09:25:54;2.10;;;0.60;;
63218;SDS011;49320;52.512;13.448;2024-02-23T09:28:21;1.10;;;0.60;;
63218;SDS011;49320;52.512;13.448;2024-02-23T09:30:47;0.70;;;0.50;;
63218;SDS011;49320;52.512;13.448;2024-02-23T09:33:14;0.95;;;0.60;;
63218;SDS011;49320;52.512;13.448;2024-02-23T09:35:41;0.63;;;0.60;;
63218;SDS011;49320;52.512;13.448;2024-02-23T09:38:08;1.20;;;0.50;;
63218;SDS011;49320;52.512;13.448;2024-02-23T09:40:35;2.85;;;0.65;;
63218;SDS011;49320;52.512;13.448;2024-02-23T09:43:02;0.50;;;0.40;;
63218;SDS011;49320;52.512;13.448;2024-02-23T09:45:34;1.75;;;0.50;;
63218;SDS011;49320;52.512;13.448;2024-02-23T09:48:01;0.68;;;0.43;;
63218;SDS011;49320;52.512;13.448;2024-02-23T09:50:30;1.67;;;0.55;;
63218;SDS011;49320;52.512;13.448;2024-02-23T09:52:58;0.77;;;0.40;;
63218;SDS011;49320;52.512;13.448;2024-02-23T09:55:27;0.98;;;0.60;;
63218;SDS011;49320;52.512;13.448;2024-02-23T09:57:55;2.08;;;0.90;;
63218;SDS011;49320;52.512;13.448;2024-02-23T10:00:26;1.27;;;0.60;;
63218;SDS011;49320;52.512;13.448;2024-02-23T10:02:55;0.88;;;0.50;;
63218;SDS011;49320;52.512;13.448;2024-02-23T10:05:26;0.40;;;0.40;;
63218;SDS011;49320;52.512;13.448;2024-02-23T10:08:04;1.67;;;0.55;;
63218;SDS011;49320;52.512;13.448;2024-02-23T10:10:35;0.55;;;0.40;;
63218;SDS011;49320;52.512;13.448;2024-02-23T10:13:05;0.98;;;0.60;;
63218;SDS011;49320;52.512;13.448;2024-02-23T10:15:32;0.80;;;0.50;;
63218;SDS011;49320;52.512;13.448;2024-02-23T10:17:59;1.27;;;0.70;;
63218;SDS011;49320;52.512;13.448;2024-02-23T10:20:26;1.35;;;0.60;;
63218;SDS011;49320;52.512;13.448;2024-02-23T10:22:53;1.13;;;0.57;;
63218;SDS011;49320;52.512;13.448;2024-02-23T10:25:20;1.13;;;0.43;;
63218;SDS011;49320;52.512;13.448;2024-02-23T10:27:48;0.73;;;0.50;;
63218;SDS011;49320;52.512;13.448;2024-02-23T10:30:14;1.23;;;0.60;;
63218;SDS011;49320;52.512;13.448;2024-02-23T10:32:42;1.67;;;0.85;;
63218;SDS011;49320;52.512;13.448;2024-02-23T10:35:13;1.55;;;0.70;;
63218;SDS011;49320;52.512;13.448;2024-02-23T10:37:43;0.40;;;0.40;;
63218;SDS011;49320;52.512;13.448;2024-02-23T10:40:13;0.80;;;0.70;;
63218;SDS011;49320;52.512;13.448;2024-02-23T10:42:43;0.50;;;0.47;;
63218;SDS011;49320;52.512;13.448;2024-02-23T10:45:17;0.70;;;0.57;;
63218;SDS011;49320;52.512;13.448;2024-02-23T10:47:45;0.82;;;0.60;;
63218;SDS011;49320;52.512;13.448;2024-02-23T10:50:14;1.42;;;0.80;;
63218;SDS011;49320;52.512;13.448;2024-02-23T10:52:42;2.10;;;0.50;;
63218;SDS011;49320;52.512;13.448;2024-02-23T10:55:09;1.75;;;0.60;;
63218;SDS011;49320;52.512;13.448;2024-02-23T10:57:37;1.67;;;0.88;;
63218;SDS011;49320;52.512;13.448;2024-02-23T11:00:06;2.47;;;0.98;;
63218;SDS011;49320;52.512;13.448;2024-02-23T11:02:43;0.93;;;0.35;;
63218;SDS011;49320;52.512;13.448;2024-02-23T11:05:18;1.20;;;0.60;;
63218;SDS011;49320;52.512;13.448;2024-02-23T11:07:46;1.60;;;0.68;;
63218;SDS011;49320;52.512;13.448;2024-02-23T11:10:15;0.98;;;0.50;;
63218;SDS011;49320;52.512;13.448;2024-02-23T11:12:43;1.67;;;0.85;;
63218;SDS011;49320;52.512;13.448;2024-02-23T11:15:27;0.52;;;0.50;;
63218;SDS011;49320;52.512;13.448;2024-02-23T11:17:57;1.40;;;0.50;;
63218;SDS011;49320;52.512;13.448;2024-02-23T11:20:24;1.45;;;0.40;;
63218;SDS011;49320;52.512;13.448;2024-02-23T11:23:01;1.20;;;0.55;;
63218;SDS011;49320;52.512;13.448;2024-02-23T11:25:39;1.38;;;0.70;;
63218;SDS011;49320;52.512;13.448;2024-02-23T11:28:06;3.58;;;0.82;;
63218;SDS011;49320;52.512;13.448;2024-02-23T11:30:32;1.13;;;0.60;;
63218;SDS011;49320;52.512;13.448;2024-02-23T11:33:04;1.65;;;0.73;;
63218;SDS011;49320;52.512;13.448;2024-02-23T11:35:34;1.52;;;0.70;;
63218;SDS011;49320;52.512;13.448;2024-02-23T11:38:01;2.05;;;0.77;;
63218;SDS011;49320;52.512;13.448;2024-02-23T11:40:31;2.35;;;0.70;;
63218;SDS011;49320;52.512;13.448;2024-02-23T11:42:59;0.82;;;0.50;;
63218;SDS011;49320;52.512;13.448;2024-02-23T11:45:29;2.63;;;1.13;;
63218;SDS011;49320;52.512;13.448;2024-02-23T11:47:57;1.48;;;0.40;;
63218;SDS011;49320;52.512;13.448;2024-02-23T11:50:25;0.88;;;0.40;;
63218;SDS011;49320;52.512;13.448;2024-02-23T11:52:52;0.75;;;0.43;;
63218;SDS011;49320;52.512;13.448;2024-02-23T11:55:20;0.98;;;0.60;;
63218;SDS011;49320;52.512;13.448;2024-02-23T11:57:49;2.30;;;0.60;;
63218;SDS011;49320;52.512;13.448;2024-02-23T12:00:30;2.55;;;1.30;;
63218;SDS011;49320;52.512;13.448;2024-02-23T12:02:57;2.00;;;0.90;;
63218;SDS011;49320;52.512;13.448;2024-02-23T12:05:24;2.75;;;0.65;;
63218;SDS011;49320;52.512;13.448;2024-02-23T12:07:51;2.63;;;0.70;;
63218;SDS011;49320;52.512;13.448;2024-02-23T12:10:19;0.73;;;0.60;;
63218;SDS011;49320;52.512;13.448;2024-02-23T12:12:46;0.90;;;0.50;;
63218;SDS011;49320;52.512;13.448;2024-02-23T12:15:13;1.70;;;0.70;;
63218;SDS011;49320;52.512;13.448;2024-02-23T12:17:49;1.13;;;0.70;;
63218;SDS011;49320;52.512;13.448;2024-02-23T12:20:18;1.60;;;0.70;;
63218;SDS011;49320;52.512;13.448;2024-02-23T12:22:47;1.23;;;0.60;;
63218;SDS011;49320;52.512;13.448;2024-02-23T12:25:14;0.88;;;0.52;;
63218;SDS011;49320;52.512;13.448;2024-02-23T12:27:41;1.45;;;0.60;;
63218;SDS011;49320;52.512;13.448;2024-02-23T12:30:15;1.20;;;0.70;;
63218;SDS011;49320;52.512;13.448;2024-02-23T12:32:43;1.42;;;0.50;;
63218;SDS011;49320;52.512;13.448;2024-02-23T12:35:11;2.10;;;0.90;;
63218;SDS011;49320;52.512;13.448;2024-02-23T12:37:39;1.65;;;0.80;;
63218;SDS011;49320;52.512;13.448;2024-02-23T12:40:10;0.73;;;0.60;;
63218;SDS011;49320;52.512;13.448;2024-02-23T12:42:37;1.52;;;0.98;;
63218;SDS011;49320;52.512;13.448;2024-02-23T12:45:04;2.15;;;0.80;;
63218;SDS011;49320;52.512;13.448;2024-02-23T12:47:31;3.30;;;0.93;;
63218;SDS011;49320;52.512;13.448;2024-02-23T12:49:58;5.05;;;1.02;;
63218;SDS011;49320;52.512;13.448;2024-02-23T12:52:25;1.25;;;0.88;;
63218;SDS011;49320;52.512;13.448;2024-02-23T12:54:52;3.00;;;0.90;;
63218;SDS011;49320;52.512;13.448;2024-02-23T12:57:20;1.05;;;0.90;;
63218;SDS011;49320;52.512;13.448;2024-02-23T12:59:46;1.80;;;0.70;;
63218;SDS011;49320;52.512;13.448;2024-02-23T13:02:13;2.25;;;1.10;;
63218;SDS011;49320;52.512;13.448;2024-02-23T13:04:40;3.17;;;0.90;;
63218;SDS011;49320;52.512;13.448;2024-02-23T13:07:09;5.15;;;1.70;;
63218;SDS011;49320;52.512;13.448;2024-02-23T13:09:36;2.25;;;1.10;;
63218;SDS011;49320;52.512;13.448;2024-02-23T13:12:03;1.80;;;1.20;;
63218;SDS011;49320;52.512;13.448;2024-02-23T13:14:30;1.55;;;1.00;;
63218;SDS011;49320;52.512;13.448;2024-02-23T13:16:57;2.97;;;1.00;;
63218;SDS011;49320;52.512;13.448;2024-02-23T13:19:24;1.33;;;1.05;;
63218;SDS011;49320;52.512;13.448;2024-02-23T13:21:51;4.82;;;1.10;;
63218;SDS011;49320;52.512;13.448;2024-02-23T13:24:20;1.73;;;0.90;;
63218;SDS011;49320;52.512;13.448;2024-02-23T13:26:47;1.42;;;0.90;;
63218;SDS011;49320;52.512;13.448;2024-02-23T13:29:15;1.70;;;1.00;;
63218;SDS011;49320;52.512;13.448;2024-02-23T13:31:42;1.20;;;0.75;;
63218;SDS011;49320;52.512;13.448;2024-02-23T13:34:09;2.35;;;0.77;;
63218;SDS011;49320;52.512;13.448;2024-02-23T13:36:36;2.58;;;0.80;;
63218;SDS011;49320;52.512;13.448;2024-02-23T13:39:04;2.85;;;1.10;;
63218;SDS011;49320;52.512;13.448;2024-02-23T13:41:30;4.45;;;1.05;;
63218;SDS011;49320;52.512;13.448;2024-02-23T13:43:57;3.50;;;0.85;;
63218;SDS011;49320;52.512;13.448;2024-02-23T13:46:24;2.47;;;0.95;;
63218;SDS011;49320;52.512;13.448;2024-02-23T13:49:01;2.20;;;0.98;;
63218;SDS011;49320;52.512;13.448;2024-02-23T13:51:32;4.72;;;1.10;;
63218;SDS011;49320;52.512;13.448;2024-02-23T13:53:59;1.65;;;0.80;;
63218;SDS011;49320;52.512;13.448;2024-02-23T13:56:26;2.15;;;1.00;;
63218;SDS011;49320;52.512;13.448;2024-02-23T13:58:54;2.53;;;1.60;;
63218;SDS011;49320;52.512;13.448;2024-02-23T14:01:21;2.65;;;1.52;;
63218;SDS011;49320;52.512;13.448;2024-02-23T14:03:48;1.65;;;0.80;;
63218;SDS011;49320;52.512;13.448;2024-02-23T14:06:15;4.10;;;1.65;;
63218;SDS011;49320;52.512;13.448;2024-02-23T14:08:42;6.75;;;1.75;;
63218;SDS011;49320;52.512;13.448;2024-02-23T14:11:10;3.42;;;1.80;;
63218;SDS011;49320;52.512;13.448;2024-02-23T14:13:37;7.07;;;2.45;;
63218;SDS011;49320;52.512;13.448;2024-02-23T14:16:04;3.42;;;1.60;;
63218;SDS011;49320;52.512;13.448;2024-02-23T14:18:31;6.10;;;2.25;;
63218;SDS011;49320;52.512;13.448;2024-02-23T14:21:04;4.75;;;1.27;;
63218;SDS011;49320;52.512;13.448;2024-02-23T14:23:31;2.42;;;1.25;;
63218;SDS011;49320;52.512;13.448;2024-02-23T14:26:00;2.05;;;1.00;;
63218;SDS011;49320;52.512;13.448;2024-02-23T14:28:28;2.00;;;1.10;;
63218;SDS011;49320;52.512;13.448;2024-02-23T14:30:55;2.38;;;1.30;;
63218;SDS011;49320;52.512;13.448;2024-02-23T14:33:22;2.53;;;1.10;;
63218;SDS011;49320;52.512;13.448;2024-02-23T14:35:49;1.95;;;1.10;;
63218;SDS011;49320;52.512;13.448;2024-02-23T14:38:16;2.28;;;0.90;;